Ride Results

Nanango (17-10-2015)
Ride distance: 80.0 km

Outcomes - Nanango (17-10-2015)
Division No. of Entries Retired / DNE Completed Withdrawn Ineligible V/O Percentage Completed
HW 15 - 13 - - 2 86.67%
MW 24 - 18 2 - 4 75.00%
LW 26 - 20 1 - 5 76.92%
JN 10 - 8 - - 2 80.00%
Totals 75 - 59 3 - 13 78.67%
Results - Nanango (17-10-2015)
No. Rider Horse Place Time Leg Speeds Total
Km/Hr
H/R bpm
Heavyweight
30 Greg Lyon Chingford Just Dreaming 1 (BC) 5:06:00 18.0, 13.8 15.69 35, 47, 45 (Avg:46)
11 Rod Field Brookleigh Marlon 2 6:41:00 11.7, 12.1 11.97 35, 44, 44 (Avg:44)
52 Matthew Gadsby Aloha Fair Queen 3 7:19:00 11.0, 10.8 10.93 44, 46, 54 (Avg:50)
66 Mark Nimon Abbeywood Le'Tigre 4 7:22:00 11.9, 9.9 10.86 36, 46, 48 (Avg:47)
54 Shane Butler Burralga Angelikh 5 7:23:00 11.3, 10.3 10.84 31, 40, 49 (Avg:44)
35 Maurice Gray Ra-Anji Amir 6 7:26:00 11.7, 9.9 10.76 43, 42, 46 (Avg:44)
5 Gillian Taylor Cool Water Safara 6 7:26:00 11.7, 9.9 10.76 37, 46, 56 (Avg:51)
4 Danielle Cullen Miva Zamil 8 7:28:00 11.9, 9.7 10.71 41, 40, 46 (Avg:43)
3 Robyn Pembroke Mt Eerwah Romonous 8 7:28:00 11.9, 9.7 10.71 50, 43, 54 (Avg:48)
26 Paul Roosen Cairo's Gem 10 7:45:00 10.6, 10.0 10.32 36, 44, 52 (Avg:48)
70 Gavin Bartlett Longrun Drifter 11 8:10:00 10.6, 9.0 9.80 35, 37, 45 (Avg:41)
78 Steve Swan Longrun Turtle Dove 12 8:32:00 10.7, 8.3 9.38 32, 39, 49 (Avg:44)
25 Chris Holden True Sensie 13 8:39:00 10.5, 8.2 9.25 34, 44, 47 (Avg:45)
14 Chris Nichols Bashan Memphis Lame L2 0:00:00 16.1, 13.1 - 39, 45, 53 (Avg:49)
36 Lauren Trenkner Missy Lame L2 0:00:00 11.5, 9.9 - 38, 39, 56 (Avg:47)
Middleweight
40 Dan Winkel Shardell Azeem 1 (BC) 5:06:00 18.0, 13.8 15.69 32, 39, 48 (Avg:43)
6 Linda Lochtenberg Matta Mia A Latte 2 5:26:00 16.3, 13.4 14.72 43, 52, 53 (Avg:52)
18 Gayle Holmes Cairo 3 5:33:00 15.5, 13.4 14.41 35, 49, 46 (Avg:47)
24 Michael Combe Nasr 4 6:30:00 13.4, 11.3 12.31 36, 45, 42 (Avg:43)
69 Caroline Fitzgerald Lanamere Kudos 5 6:32:00 12.6, 11.8 12.24 35, 45, 48 (Avg:46)
38 Jacinta Stubbings Cameo Pygmalion 6 6:33:00 13.4, 11.1 12.21 34, 44, 49 (Avg:46)
13 Lizzy Cleland Magic Glenn Tayla 7 6:41:00 11.7, 12.1 11.97 36, 43, 48 (Avg:45)
64 Anne Barlow Sa-Har Magnolia 8 7:22:00 11.0, 10.7 10.86 35, 40, 44 (Avg:42)
44 Hannah McQueen Elfar Kaspa 9 7:23:00 11.8, 9.9 10.84 42, 48, 59 (Avg:53)
22 Yvonne Hain Janita La Tori 10 7:26:00 11.9, 9.7 10.76 42, 42, 51 (Avg:46)
65 Ruth White Cameo Top Hat 11 7:31:00 11.0, 10.2 10.64 34, 48, 46 (Avg:47)
47 Akhmed Pshunov Traveller te 12 7:32:00 11.0, 10.2 10.62 49, 50, 50 (Avg:50)
10 Stephen Gray Sir Avatar 13 7:38:00 11.3, 9.7 10.48 30, 38, 36 (Avg:37)
73 Bec Miller Hirstglen Probably 14 7:41:00 11.1, 9.7 10.41 36, 46, 51 (Avg:48)
71 Olga Bartlett Mt Eerwah Anastazia 15 8:10:00 10.6, 9.0 9.80 33, 40, 41 (Avg:40)
19 Brenda Davy Bashan Kadir 16 8:28:00 10.0, 8.8 9.45 36, 44, 46 (Avg:45)
31 Angela Beverley Buck 17 8:32:00 10.5, 8.4 9.38 38, 47, 40 (Avg:43)
77 Jackie Swan Shantele 17 8:32:00 10.7, 8.3 9.38 32, 41, 43 (Avg:42)
39 Gratia Ashmore Equalizers Pretty Cazza Lame L2 0:00:00 10.4, 8.2 - 36, 48, 52 (Avg:50)
34 Liz Somes Aloha Queen Lame L2 0:00:00 11.7, 9.9 - 38, 38, 48 (Avg:43)
49 Timothy Sutcliffe Chatelaine Lame L2 0:00:00 10.5, 9.1 - 32, 43, 44 (Avg:43)
9 Brook Sample Brookleigh Juno Withdrawn L1 0:00:00 - - 35, 46 (Avg:46)
61 Sabrina Stephens Cameo Silver Bellz Lame L1 0:00:00 15.1 - 36, 51 (Avg:51)
43 Lainie Zischke The Big Dipper Withdrawn L1 0:00:00 - - 34, 52 (Avg:52)
Lightweight
45 Jane Fisher Shanzee 1 (BC) 5:06:00 18.1, 13.7 15.69 34, 50, 39 (Avg:44)
41 Karen Winkel Ranek Boz 1 5:06:00 18.0, 13.8 15.69 52, 52, 45 (Avg:48)
33 Janelle Taylor Calico Jarkamarn 3 5:26:00 16.3, 13.4 14.72 37, 37, 39 (Avg:38)
37 Ute Jordan Anijoa Delilah 4 5:59:00 15.7, 11.5 13.37 40, 41, 49 (Avg:45)
32 Jocelyn Barnes Trinity 5 6:12:00 14.6, 11.5 12.90 32, 40, 48 (Avg:44)
62 Christine Christie Sateen 5 6:12:00 14.6, 11.5 12.90 34, 41, 49 (Avg:45)
23 Mary Sims Mt Eerwah Silver Duet 7 6:34:00 14.3, 10.5 12.18 36, 40, 55 (Avg:47)
2 Jess Ashman Sur'een Al Naa'sit 8 6:35:00 12.7, 11.5 12.15 34, 43, 52 (Avg:47)
58 Wendy Butler Revere Shalee 9 6:41:00 15.1, 9.8 11.97 40, 40, 43 (Avg:41)
15 Hedi Laigar Brookleigh Latika 9 6:41:00 11.8, 12.1 11.97 36, 43, 50 (Avg:46)
55 Adriana Sardoni Willowvale Sirahh 11 6:50:00 12.0, 11.3 11.71 31, 44, 45 (Avg:44)
72 Jan Tyrrell Steel Poppy Bayeux 12 7:00:00 12.0, 10.8 11.43 33, 46, 40 (Avg:43)
59 Alexandra Toft Roger That te 13 7:21:00 11.0, 10.7 10.88 33, 39, 47 (Avg:43)
28 Chez Barlow Ricardo 14 7:24:00 11.0, 10.6 10.81 34, 40, 42 (Avg:41)
63 Chloe Bews Arabiana Banama 14 7:24:00 11.3, 10.3 10.81 38, 52, 49 (Avg:50)
50 Kaylea Maher Esme te 16 7:32:00 11.0, 10.2 10.62 42, 46, 52 (Avg:49)
16 Emma Masters Amarillo Park True Infatuation 17 7:38:00 11.3, 9.7 10.48 41, 51, 52 (Avg:51)
74 Jessyca Dakin Hirstglen Cruisader 18 7:41:00 11.1, 9.7 10.41 33, 38, 38 (Avg:38)
27 Janelle Roosen Kinder Surprise Silkk 19 7:45:00 10.6, 10.0 10.32 28, 33, 42 (Avg:37)
48 Sue Sutcliffe Zanes Shadow 20 8:11:00 10.5, 9.1 9.78 32, 50, 41 (Avg:45)
56 Victoria Clarke Milton Lame L2 0:00:00 12.0, 11.3 - 34, 44, 47 (Avg:45)
1 Astrid Stevenson Gheerulla Aspen Lame L2 0:00:00 10.0, 8.8 - 43, 48, 54 (Avg:51)
75 Mindy Davies Hirstglen Bellarina Withdrawn L1 0:00:00 - - 34, 44 (Avg:44)
46 Sascha Jones Magic Glenn Torbreck Lame L1 0:00:00 11.7 - 34, 39 (Avg:39)
7 Heather Parry Mishael Metabolics severe L1 0:00:00 11.0 - 35, 44 (Avg:44)
8 Christal Rizk Melton Teddy Bear Lame L1 0:00:00 11.7 - 39, 53 (Avg:53)
Junior
76 Brooke Marshall Bashan Vashti 1 (BC) 5:27:00 15.8, 13.6 14.68 33, 36, 44 (Avg:40)
17 Christina Simpson Agape Evezra 2 5:32:00 15.9, 13.1 14.46 37, 45, 58 (Avg:51)
20 Mel Simpson Bashan Tahpenes 2 5:32:00 15.9, 13.1 14.46 45, 54, 49 (Avg:51)
60 Emma Dimech Indiana Seabreeze 4 6:32:00 12.8, 11.7 12.24 32, 46, 49 (Avg:47)
67 Timothy Fitzgerald Lanamere Brio 4 6:32:00 12.6, 11.8 12.24 33, 43, 51 (Avg:47)
68 Jessica Fitzgerald Beaudacious te 4 6:32:00 12.6, 11.8 12.24 30, 39, 41 (Avg:40)
42 Tahlia Franke Brookleigh Ferris 7 6:41:00 11.8, 12.1 11.97 33, 41, 46 (Avg:43)
12 Gemma Sutcliffe Gheerulla Anton 7 6:41:00 11.7, 12.1 11.97 36, 47, 47 (Avg:47)
57 Erin Ellison Ardair Skoda Lame L2 0:00:00 12.0, 11.3 - 36, 42, 46 (Avg:44)
21 Jazzy Maher Kelkette Park Silver Envoy Lame L1 0:00:00 10.0 - 38, 43 (Avg:43)